createdAt,value
2023-02-07T05:25:11.474Z,76.38
2023-02-07T05:27:38.574Z,76.46
2023-02-07T05:30:07.698Z,76.50
2023-02-07T05:32:53.241Z,76.55
2023-02-07T05:35:20.925Z,76.71
2023-02-07T05:37:48.155Z,76.70
2023-02-07T05:40:16.036Z,76.74
2023-02-07T05:42:43.379Z,76.61
2023-02-07T05:45:11.141Z,76.81
2023-02-07T05:47:38.808Z,76.94
2023-02-07T05:50:06.881Z,76.71
2023-02-07T05:52:35.795Z,76.85
2023-02-07T05:55:04.958Z,76.89
2023-02-07T05:57:32.408Z,76.81
2023-02-07T06:00:00.119Z,77.13
2023-02-07T06:02:27.819Z,76.87
2023-02-07T06:04:55.400Z,76.85
2023-02-07T06:07:22.645Z,76.78
2023-02-07T06:09:57.451Z,76.80
2023-02-07T06:12:24.847Z,76.62
2023-02-07T06:14:51.984Z,76.82
2023-02-07T06:17:26.759Z,77.03
2023-02-07T06:19:53.963Z,76.86
2023-02-07T06:22:21.106Z,77.25
2023-02-07T06:24:48.177Z,77.35
2023-02-07T06:27:17.772Z,77.11
2023-02-07T06:29:45.342Z,77.15
2023-02-07T06:32:12.897Z,76.94
2023-02-07T06:34:40.860Z,76.56
2023-02-07T06:37:08.136Z,76.48
2023-02-07T06:39:35.510Z,76.24
2023-02-07T06:42:03.946Z,75.97
2023-02-07T06:44:31.396Z,75.75
2023-02-07T06:46:58.593Z,75.92
2023-02-07T06:49:28.670Z,75.64
2023-02-07T06:51:56.754Z,75.36
2023-02-07T06:54:24.502Z,74.97
2023-02-07T06:56:51.967Z,75.10
2023-02-07T06:59:28.543Z,75.05
2023-02-07T07:01:59.304Z,74.93
2023-02-07T07:04:29.597Z,74.71
2023-02-07T07:06:57.253Z,74.73
2023-02-07T07:09:24.766Z,74.57
2023-02-07T07:11:51.978Z,74.45
2023-02-07T07:14:21.549Z,74.34
2023-02-07T07:16:50.068Z,74.38
2023-02-07T07:19:17.713Z,74.28
2023-02-07T07:21:48.703Z,74.73
2023-02-07T07:24:17.764Z,74.40
2023-02-07T07:26:49.829Z,74.60
2023-02-07T07:29:19.696Z,74.47
2023-02-07T07:31:47.461Z,74.34
2023-02-07T07:34:15.582Z,74.12
2023-02-07T07:36:42.766Z,73.84
2023-02-07T07:39:13.412Z,73.74
2023-02-07T07:41:43.321Z,74.02
2023-02-07T07:44:13.618Z,73.79
2023-02-07T07:46:41.165Z,73.61
2023-02-07T07:49:09.261Z,73.38
2023-02-07T07:51:37.093Z,73.43
2023-02-07T07:54:07.041Z,73.40
2023-02-07T07:56:36.811Z,73.23
2023-02-07T07:59:20.070Z,73.12
2023-02-07T08:01:53.106Z,73.05
2023-02-07T08:04:20.556Z,72.94
2023-02-07T08:06:48.583Z,72.90
2023-02-07T08:09:16.010Z,72.73
2023-02-07T08:11:52.504Z,72.96
2023-02-07T08:14:19.931Z,72.76
2023-02-07T08:16:47.486Z,72.99
2023-02-07T08:19:17.601Z,73.02
2023-02-07T08:21:47.724Z,72.87
2023-02-07T08:24:16.110Z,72.69
2023-02-07T08:26:44.478Z,72.33
2023-02-07T08:29:13.427Z,72.11
2023-02-07T08:31:44.709Z,71.72
2023-02-07T08:34:13.365Z,71.66
2023-02-07T08:36:41.483Z,71.61
2023-02-07T08:39:09.650Z,71.70
2023-02-07T08:41:38.133Z,71.59
2023-02-07T08:44:05.753Z,71.46
2023-02-07T08:46:34.970Z,71.57
2023-02-07T08:49:11.050Z,71.64
2023-02-07T08:51:42.374Z,71.37
2023-02-07T08:54:22.245Z,71.37
2023-02-07T08:57:00.287Z,71.55
2023-02-07T08:59:30.271Z,71.43
2023-02-07T09:01:58.287Z,71.57
2023-02-07T09:04:26.677Z,71.49
2023-02-07T09:06:54.063Z,71.87
2023-02-07T09:09:21.850Z,71.90
2023-02-07T09:11:52.159Z,71.68
2023-02-07T09:14:19.844Z,72.12
2023-02-07T09:16:47.280Z,71.96
2023-02-07T09:19:14.842Z,72.03
2023-02-07T09:21:42.070Z,71.83
2023-02-07T09:24:09.159Z,71.87
2023-02-07T09:26:38.536Z,71.72
2023-02-07T09:29:14.140Z,71.67
2023-02-07T09:31:44.522Z,71.71
2023-02-07T09:34:12.186Z,71.86
2023-02-07T09:36:40.480Z,72.10
2023-02-07T09:39:10.426Z,71.92
2023-02-07T09:41:56.982Z,71.72
2023-02-07T09:44:48.606Z,71.63
2023-02-07T09:47:27.508Z,71.96
2023-02-07T09:50:06.040Z,71.82
2023-02-07T09:52:49.990Z,71.72
2023-02-07T09:55:23.712Z,71.64
2023-02-07T09:58:22.275Z,71.92
2023-02-07T10:01:01.059Z,71.80
2023-02-07T10:03:31.421Z,71.69
2023-02-07T10:06:17.879Z,71.72
2023-02-07T10:08:51.472Z,72.04
2023-02-07T10:11:26.068Z,71.72
2023-02-07T10:13:53.293Z,71.45
2023-02-07T10:16:23.451Z,71.47
2023-02-07T10:18:57.115Z,71.55
2023-02-07T10:21:53.442Z,71.79
2023-02-07T10:24:51.569Z,71.93
2023-02-07T10:27:32.702Z,72.27
2023-02-07T10:30:16.368Z,72.30
2023-02-07T10:32:46.951Z,72.26
2023-02-07T10:35:39.116Z,71.97
2023-02-07T10:38:30.981Z,72.06
2023-02-07T10:41:06.828Z,72.08
2023-02-07T10:43:35.397Z,72.25
2023-02-07T10:46:09.068Z,72.56
2023-02-07T10:48:40.376Z,72.79
2023-02-07T10:51:30.921Z,73.03
2023-02-07T10:54:08.192Z,73.32
2023-02-07T10:56:53.588Z,72.98
2023-02-07T10:59:38.723Z,73.24
2023-02-07T11:02:48.311Z,73.09
2023-02-07T11:05:15.862Z,73.36
2023-02-07T11:08:02.025Z,73.17
2023-02-07T11:10:33.605Z,72.93
2023-02-07T11:13:04.285Z,72.43
2023-02-07T11:15:31.703Z,72.28
2023-02-07T11:17:59.409Z,72.18
2023-02-07T11:20:43.492Z,72.09
2023-02-07T11:23:15.732Z,71.60
2023-02-07T11:25:53.064Z,71.40
2023-02-07T11:28:36.085Z,71.63
2023-02-07T11:31:09.998Z,71.56
2023-02-07T11:33:37.973Z,71.17
2023-02-07T11:36:31.529Z,71.37
2023-02-07T11:39:00.139Z,71.36
2023-02-07T11:41:34.504Z,71.50
2023-02-07T11:44:17.252Z,71.88
2023-02-07T11:46:54.026Z,71.91
2023-02-07T11:49:30.370Z,72.10
2023-02-07T11:52:02.899Z,72.23
2023-02-07T11:54:37.282Z,72.33
2023-02-07T11:57:19.401Z,72.73
2023-02-07T12:00:18.692Z,72.39
2023-02-07T12:03:08.600Z,71.95
2023-02-07T12:05:46.940Z,71.77
2023-02-07T12:08:19.225Z,71.75
2023-02-07T12:10:51.450Z,71.85
2023-02-07T12:13:35.504Z,71.48
2023-02-07T12:16:05.321Z,71.55
2023-02-07T12:18:42.669Z,71.45
2023-02-07T12:21:22.261Z,71.67
2023-02-07T12:24:31.008Z,71.48
2023-02-07T12:27:16.833Z,71.49
2023-02-07T12:29:57.796Z,71.76
2023-02-07T12:32:37.113Z,71.45
2023-02-07T12:35:11.082Z,71.95
2023-02-07T12:37:42.575Z,72.02
2023-02-07T12:40:20.878Z,72.47
2023-02-07T12:43:11.608Z,72.06
2023-02-07T12:46:01.981Z,72.36
2023-02-07T12:48:51.203Z,72.54
2023-02-07T12:51:41.491Z,72.38
2023-02-07T12:54:28.068Z,72.58
2023-02-07T12:57:12.359Z,72.78
2023-02-07T12:59:58.743Z,72.70
2023-02-07T13:02:40.244Z,72.69
2023-02-07T13:05:44.841Z,72.93
2023-02-07T13:08:52.022Z,72.98
2023-02-07T13:11:41.306Z,73.13
2023-02-07T13:14:47.686Z,73.64
2023-02-07T13:17:37.949Z,73.60
2023-02-07T13:20:39.366Z,73.72
2023-02-07T13:23:24.534Z,73.76
2023-02-07T13:25:57.204Z,73.79
2023-02-07T13:28:41.550Z,73.83
2023-02-07T17:44:32.973Z,77.08
2023-02-07T17:47:06.465Z,76.82
2023-02-07T17:49:37.287Z,76.72
2023-02-07T17:52:17.121Z,76.28
2023-02-07T17:54:47.382Z,76.33
2023-02-07T17:57:17.995Z,76.14
2023-02-07T17:59:48.892Z,76.26
2023-02-07T18:02:35.981Z,76.14
2023-02-07T18:05:07.542Z,75.93
2023-02-07T18:07:37.707Z,75.73
2023-02-07T18:10:18.575Z,75.57
2023-02-07T18:12:48.631Z,75.47
2023-02-07T18:15:22.127Z,75.46
2023-02-07T18:17:53.663Z,74.63
2023-02-07T18:20:25.901Z,74.26
2023-02-07T18:23:15.596Z,73.47
2023-02-07T18:25:54.220Z,73.08
2023-02-07T18:28:31.082Z,72.92
2023-02-07T18:31:24.544Z,72.56
2023-02-07T18:34:00.466Z,72.27
2023-02-07T18:36:40.182Z,70.90
2023-02-07T18:39:11.893Z,70.06
2023-02-07T18:41:45.926Z,69.94
2023-02-07T18:44:14.907Z,69.16
2023-02-07T18:46:51.485Z,68.13
2023-02-07T18:49:28.680Z,67.38
2023-02-07T18:52:04.088Z,67.26
2023-02-07T18:54:32.952Z,67.26
2023-02-07T18:57:05.439Z,66.47
2023-02-07T18:59:34.977Z,65.45
2023-02-07T19:02:08.587Z,65.43
2023-02-07T19:04:37.060Z,65.29
2023-02-07T19:07:06.701Z,64.32
2023-02-07T19:09:35.858Z,64.53
2023-02-07T19:12:05.888Z,64.02
2023-02-07T19:14:41.175Z,64.13
2023-02-07T19:17:10.115Z,64.17
2023-02-07T19:19:39.109Z,64.61
2023-02-07T19:22:11.180Z,64.72
2023-02-07T19:24:41.944Z,64.59
2023-02-07T19:27:10.379Z,64.95
2023-02-07T19:29:39.177Z,65.16
2023-02-07T19:32:09.615Z,64.87
2023-02-07T19:34:38.801Z,65.05
2023-02-07T19:37:07.996Z,64.23
2023-02-07T19:39:38.436Z,63.52
2023-02-07T19:42:10.564Z,62.48
2023-02-07T19:44:43.043Z,62.23
2023-02-07T19:47:13.210Z,62.08
2023-02-07T19:49:43.925Z,62.06
2023-02-07T19:52:17.206Z,62.06
2023-02-07T19:54:50.213Z,62.18
2023-02-07T19:57:24.265Z,62.19
2023-02-07T19:59:55.977Z,62.03
2023-02-07T20:02:26.271Z,62.37
2023-02-07T20:04:54.971Z,62.10
2023-02-07T20:07:24.671Z,62.11
2023-02-07T20:09:53.775Z,62.40
2023-02-07T20:12:22.878Z,62.51
2023-02-07T20:14:54.939Z,62.37
2023-02-07T20:17:26.100Z,63.02
2023-02-07T20:19:57.131Z,62.67
2023-02-07T20:22:28.234Z,62.76
2023-02-07T20:24:57.291Z,62.83
2023-02-07T20:27:25.951Z,62.72
2023-02-07T20:29:57.101Z,62.89
2023-02-07T20:32:29.160Z,63.05
2023-02-07T20:34:57.754Z,63.33
2023-02-07T20:37:26.533Z,63.33
2023-02-07T20:39:55.640Z,63.70
2023-02-07T20:42:30.789Z,63.74
2023-02-07T20:44:59.548Z,64.27
2023-02-07T20:47:28.139Z,64.37
2023-02-07T20:50:00.916Z,64.59
2023-02-07T20:52:29.912Z,65.05
2023-02-07T20:54:58.587Z,65.42
2023-02-07T20:57:31.372Z,65.68
2023-02-07T20:59:59.871Z,65.67
2023-02-07T21:02:31.436Z,65.88
2023-02-07T21:05:00.096Z,66.02
2023-02-07T21:07:28.840Z,66.54
2023-02-07T21:09:59.932Z,66.43
2023-02-07T21:12:28.509Z,66.79
2023-02-07T21:14:57.726Z,66.76
2023-02-07T21:17:29.051Z,66.86
2023-02-07T21:19:57.541Z,67.11
2023-02-07T21:22:34.503Z,67.06
2023-02-07T21:25:02.603Z,66.95
2023-02-07T21:27:31.264Z,67.04
2023-02-07T21:29:59.848Z,67.05
2023-02-07T21:32:30.915Z,67.28
2023-02-07T21:34:59.630Z,67.28
2023-02-07T21:37:28.158Z,67.13
2023-02-07T21:39:57.056Z,66.86
2023-02-07T21:42:25.530Z,66.89
2023-02-07T21:44:53.980Z,66.59
2023-02-07T21:47:22.699Z,66.54
2023-02-07T21:49:51.487Z,66.12
2023-02-07T21:52:20.380Z,66.15
2023-02-07T21:54:52.242Z,65.56
2023-02-07T21:57:31.651Z,65.08
2023-02-07T22:00:03.230Z,64.88
2023-02-07T22:02:34.933Z,64.11
2023-02-07T22:05:03.626Z,64.07
2023-02-07T22:07:32.461Z,63.96
2023-02-07T22:10:03.811Z,63.89
2023-02-07T22:12:34.951Z,64.38
2023-02-07T22:15:03.735Z,64.49
2023-02-07T22:17:32.240Z,64.27
2023-02-07T22:20:04.616Z,63.59
2023-02-07T22:22:33.179Z,63.19
2023-02-07T22:25:01.766Z,62.70
2023-02-07T22:27:31.280Z,62.17
2023-02-07T22:30:00.361Z,62.21
2023-02-07T22:32:29.354Z,62.20
2023-02-07T22:34:58.267Z,62.52
2023-02-07T22:37:26.921Z,62.23
2023-02-07T22:39:55.813Z,61.73
2023-02-07T22:42:24.627Z,61.84
2023-02-07T22:44:55.948Z,61.46
2023-02-07T22:47:24.433Z,61.25
2023-02-07T22:49:53.521Z,61.07
2023-02-07T22:52:22.005Z,61.44
2023-02-07T22:54:52.741Z,61.62
2023-02-07T22:57:21.317Z,61.45
2023-02-07T22:59:49.907Z,61.92
2023-02-07T23:02:20.758Z,61.98
2023-02-07T23:04:49.527Z,62.71
2023-02-07T23:07:17.998Z,62.38
2023-02-07T23:09:48.640Z,62.08
2023-02-07T23:12:25.925Z,61.77
2023-02-07T23:14:54.417Z,61.88
2023-02-07T23:17:22.916Z,62.08
2023-02-07T23:19:59.040Z,62.27
2023-02-07T23:22:27.858Z,61.96
2023-02-07T23:24:56.832Z,62.15
2023-02-07T23:27:25.418Z,61.97
2023-02-07T23:29:53.998Z,61.93
2023-02-07T23:32:25.344Z,61.90
2023-02-07T23:34:53.831Z,61.77
2023-02-07T23:37:23.059Z,61.43
2023-02-07T23:39:53.501Z,61.33
2023-02-07T23:42:22.391Z,60.89
2023-02-07T23:44:53.384Z,61.00
2023-02-07T23:47:21.970Z,60.96
2023-02-07T23:49:50.454Z,60.90
2023-02-07T23:52:18.999Z,61.01
2023-02-07T23:54:47.722Z,61.12
2023-02-07T23:57:16.206Z,61.52
2023-02-07T23:59:44.795Z,61.60
